Terminal Aerodrome Forecast
Issued by NWS

Home | Current Version | Previous Version | Text Only | Print | Product List | Glossary On
Versions: 1 2 3 4 5 6 7 8 9 10 11 12 13 14 15 16 17 18 19 20 21 22 23 24 25 26 27 28 29 30 31 32 33 34 35
000
FTUS41 KOKX 172300 RRA
TAFTEB
TAF
KTEB 172351Z 1800/1824 13007KT P6SM FEW030 BKN250
     FM180300 10005KT P6SM BKN250
     FM180600 06005KT P6SM FEW020 BKN250
     FM180900 05004KT P6SM SCT015 BKN250
      TEMPO 1810/1814 BKN015
     FM181400 09006KT P6SM SCT020 BKN250
     FM181700 16007KT P6SM FEW030 BKN250=

USA.gov is the U.S. government's official web portal to all federal, state and local government web resources and services.